sensor_id;sensor_type;location;lat;lon;timestamp;P1;durP1;ratioP1;P2;durP2;ratioP2
22250;SDS011;59348;52.158;5.588;2022-08-03T00:00:23;6.32;;;2.13;;
22250;SDS011;59348;52.158;5.588;2022-08-03T00:02:51;6.10;;;2.00;;
22250;SDS011;59348;52.158;5.588;2022-08-03T00:05:18;9.13;;;2.63;;
22250;SDS011;59348;52.158;5.588;2022-08-03T00:07:45;4.75;;;2.00;;
22250;SDS011;59348;52.158;5.588;2022-08-03T00:10:14;7.30;;;2.22;;
22250;SDS011;59348;52.158;5.588;2022-08-03T00:12:41;10.48;;;2.40;;
22250;SDS011;59348;52.158;5.588;2022-08-03T00:15:09;7.72;;;2.15;;
22250;SDS011;59348;52.158;5.588;2022-08-03T00:17:36;8.73;;;2.10;;
22250;SDS011;59348;52.158;5.588;2022-08-03T00:20:04;6.30;;;2.47;;
22250;SDS011;59348;52.158;5.588;2022-08-03T00:22:33;8.27;;;2.80;;
22250;SDS011;59348;52.158;5.588;2022-08-03T00:25:00;4.38;;;2.33;;
22250;SDS011;59348;52.158;5.588;2022-08-03T00:27:29;7.40;;;2.58;;
22250;SDS011;59348;52.158;5.588;2022-08-03T00:29:56;10.90;;;2.60;;
22250;SDS011;59348;52.158;5.588;2022-08-03T00:32:23;8.57;;;2.55;;
22250;SDS011;59348;52.158;5.588;2022-08-03T00:34:51;8.52;;;2.50;;
22250;SDS011;59348;52.158;5.588;2022-08-03T00:37:18;9.23;;;3.15;;
22250;SDS011;59348;52.158;5.588;2022-08-03T00:39:45;11.20;;;2.97;;
22250;SDS011;59348;52.158;5.588;2022-08-03T00:42:13;8.23;;;2.60;;
22250;SDS011;59348;52.158;5.588;2022-08-03T00:44:42;6.50;;;2.55;;
22250;SDS011;59348;52.158;5.588;2022-08-03T00:47:10;9.52;;;2.78;;
22250;SDS011;59348;52.158;5.588;2022-08-03T00:49:37;10.57;;;2.80;;
22250;SDS011;59348;52.158;5.588;2022-08-03T00:52:05;8.57;;;2.88;;
22250;SDS011;59348;52.158;5.588;2022-08-03T00:54:34;5.45;;;2.60;;
22250;SDS011;59348;52.158;5.588;2022-08-03T00:57:02;11.00;;;3.00;;
22250;SDS011;59348;52.158;5.588;2022-08-03T00:59:29;8.77;;;3.00;;
22250;SDS011;59348;52.158;5.588;2022-08-03T01:01:58;7.13;;;2.33;;
22250;SDS011;59348;52.158;5.588;2022-08-03T01:04:26;8.15;;;3.08;;
22250;SDS011;59348;52.158;5.588;2022-08-03T01:06:56;9.23;;;2.92;;
22250;SDS011;59348;52.158;5.588;2022-08-03T01:09:26;8.85;;;3.03;;
22250;SDS011;59348;52.158;5.588;2022-08-03T01:11:58;9.18;;;2.72;;
22250;SDS011;59348;52.158;5.588;2022-08-03T01:14:31;6.65;;;2.72;;
22250;SDS011;59348;52.158;5.588;2022-08-03T01:17:04;7.45;;;2.85;;
22250;SDS011;59348;52.158;5.588;2022-08-03T01:19:40;7.80;;;2.88;;
22250;SDS011;59348;52.158;5.588;2022-08-03T01:22:16;8.98;;;2.95;;
22250;SDS011;59348;52.158;5.588;2022-08-03T01:24:49;11.18;;;2.92;;
22250;SDS011;59348;52.158;5.588;2022-08-03T01:27:17;6.72;;;2.60;;
22250;SDS011;59348;52.158;5.588;2022-08-03T01:29:57;6.38;;;2.60;;
22250;SDS011;59348;52.158;5.588;2022-08-03T01:32:27;10.75;;;3.25;;
22250;SDS011;59348;52.158;5.588;2022-08-03T01:34:57;6.55;;;3.35;;
22250;SDS011;59348;52.158;5.588;2022-08-03T01:37:26;4.68;;;2.83;;
22250;SDS011;59348;52.158;5.588;2022-08-03T01:39:58;7.53;;;2.90;;
22250;SDS011;59348;52.158;5.588;2022-08-03T01:42:28;10.30;;;3.15;;
22250;SDS011;59348;52.158;5.588;2022-08-03T01:44:55;6.28;;;2.83;;
22250;SDS011;59348;52.158;5.588;2022-08-03T01:47:24;7.43;;;3.05;;
22250;SDS011;59348;52.158;5.588;2022-08-03T01:49:53;7.45;;;3.33;;
22250;SDS011;59348;52.158;5.588;2022-08-03T01:52:22;10.15;;;3.42;;
22250;SDS011;59348;52.158;5.588;2022-08-03T01:54:51;9.55;;;3.63;;
22250;SDS011;59348;52.158;5.588;2022-08-03T01:57:19;7.85;;;3.60;;
22250;SDS011;59348;52.158;5.588;2022-08-03T01:59:48;10.98;;;3.95;;
22250;SDS011;59348;52.158;5.588;2022-08-03T02:02:16;11.68;;;3.70;;
22250;SDS011;59348;52.158;5.588;2022-08-03T02:04:46;9.45;;;3.38;;
22250;SDS011;59348;52.158;5.588;2022-08-03T02:07:13;10.15;;;3.88;;
22250;SDS011;59348;52.158;5.588;2022-08-03T02:09:42;9.25;;;3.60;;
22250;SDS011;59348;52.158;5.588;2022-08-03T02:12:10;8.95;;;3.70;;
22250;SDS011;59348;52.158;5.588;2022-08-03T02:14:38;9.65;;;3.97;;
22250;SDS011;59348;52.158;5.588;2022-08-03T02:17:06;10.77;;;3.53;;
22250;SDS011;59348;52.158;5.588;2022-08-03T02:19:34;10.60;;;3.88;;
22250;SDS011;59348;52.158;5.588;2022-08-03T02:22:03;12.43;;;3.97;;
22250;SDS011;59348;52.158;5.588;2022-08-03T02:24:31;8.50;;;4.10;;
22250;SDS011;59348;52.158;5.588;2022-08-03T02:26:58;8.02;;;3.90;;
22250;SDS011;59348;52.158;5.588;2022-08-03T02:29:28;10.40;;;4.10;;
22250;SDS011;59348;52.158;5.588;2022-08-03T02:31:58;11.93;;;4.18;;
22250;SDS011;59348;52.158;5.588;2022-08-03T02:34:28;11.30;;;4.20;;
22250;SDS011;59348;52.158;5.588;2022-08-03T02:36:56;12.40;;;4.32;;
22250;SDS011;59348;52.158;5.588;2022-08-03T02:39:26;11.63;;;4.07;;
22250;SDS011;59348;52.158;5.588;2022-08-03T02:41:55;11.07;;;4.38;;
22250;SDS011;59348;52.158;5.588;2022-08-03T02:44:26;8.20;;;4.05;;
22250;SDS011;59348;52.158;5.588;2022-08-03T02:46:56;11.70;;;3.85;;
22250;SDS011;59348;52.158;5.588;2022-08-03T02:49:25;14.02;;;4.50;;
22250;SDS011;59348;52.158;5.588;2022-08-03T02:51:53;8.73;;;4.13;;
22250;SDS011;59348;52.158;5.588;2022-08-03T02:54:22;11.10;;;4.20;;
22250;SDS011;59348;52.158;5.588;2022-08-03T02:56:51;9.25;;;3.83;;
22250;SDS011;59348;52.158;5.588;2022-08-03T02:59:20;11.60;;;4.15;;
22250;SDS011;59348;52.158;5.588;2022-08-03T03:01:48;10.30;;;4.07;;
22250;SDS011;59348;52.158;5.588;2022-08-03T03:04:17;19.38;;;4.50;;
22250;SDS011;59348;52.158;5.588;2022-08-03T03:06:45;11.23;;;4.10;;
22250;SDS011;59348;52.158;5.588;2022-08-03T03:09:12;11.20;;;4.20;;
22250;SDS011;59348;52.158;5.588;2022-08-03T03:11:40;12.27;;;3.92;;
22250;SDS011;59348;52.158;5.588;2022-08-03T03:14:09;11.52;;;4.07;;
22250;SDS011;59348;52.158;5.588;2022-08-03T03:16:37;9.15;;;3.75;;
22250;SDS011;59348;52.158;5.588;2022-08-03T03:19:05;9.90;;;4.20;;
22250;SDS011;59348;52.158;5.588;2022-08-03T03:21:33;10.73;;;4.28;;
22250;SDS011;59348;52.158;5.588;2022-08-03T03:24:01;8.10;;;4.25;;
22250;SDS011;59348;52.158;5.588;2022-08-03T03:26:28;14.75;;;4.53;;
22250;SDS011;59348;52.158;5.588;2022-08-03T03:28:56;14.25;;;4.45;;
22250;SDS011;59348;52.158;5.588;2022-08-03T03:31:25;8.68;;;4.10;;
22250;SDS011;59348;52.158;5.588;2022-08-03T03:33:52;11.20;;;4.68;;
22250;SDS011;59348;52.158;5.588;2022-08-03T03:36:19;14.57;;;5.03;;
22250;SDS011;59348;52.158;5.588;2022-08-03T03:38:47;10.73;;;4.93;;
22250;SDS011;59348;52.158;5.588;2022-08-03T03:41:14;13.57;;;5.03;;
22250;SDS011;59348;52.158;5.588;2022-08-03T03:43:41;11.52;;;5.05;;
22250;SDS011;59348;52.158;5.588;2022-08-03T03:46:10;14.75;;;5.18;;
22250;SDS011;59348;52.158;5.588;2022-08-03T03:48:39;13.45;;;5.15;;
22250;SDS011;59348;52.158;5.588;2022-08-03T03:51:07;12.35;;;5.03;;
22250;SDS011;59348;52.158;5.588;2022-08-03T03:53:35;18.63;;;5.18;;
22250;SDS011;59348;52.158;5.588;2022-08-03T03:56:02;14.75;;;5.20;;
22250;SDS011;59348;52.158;5.588;2022-08-03T03:58:30;12.50;;;4.97;;
22250;SDS011;59348;52.158;5.588;2022-08-03T04:00:57;17.63;;;5.10;;
22250;SDS011;59348;52.158;5.588;2022-08-03T04:03:25;17.92;;;4.68;;
22250;SDS011;59348;52.158;5.588;2022-08-03T04:05:53;12.55;;;4.80;;
22250;SDS011;59348;52.158;5.588;2022-08-03T04:08:34;11.82;;;4.78;;
22250;SDS011;59348;52.158;5.588;2022-08-03T04:11:17;12.80;;;4.47;;
22250;SDS011;59348;52.158;5.588;2022-08-03T04:13:50;13.60;;;4.63;;
22250;SDS011;59348;52.158;5.588;2022-08-03T04:16:20;18.05;;;4.53;;
22250;SDS011;59348;52.158;5.588;2022-08-03T04:18:51;15.10;;;4.50;;
22250;SDS011;59348;52.158;5.588;2022-08-03T04:21:20;16.77;;;4.40;;
22250;SDS011;59348;52.158;5.588;2022-08-03T04:23:48;14.48;;;4.82;;
22250;SDS011;59348;52.158;5.588;2022-08-03T04:26:17;15.10;;;4.60;;
22250;SDS011;59348;52.158;5.588;2022-08-03T04:28:46;13.43;;;4.60;;
22250;SDS011;59348;52.158;5.588;2022-08-03T04:31:14;10.68;;;4.45;;
22250;SDS011;59348;52.158;5.588;2022-08-03T04:33:43;15.27;;;4.80;;
22250;SDS011;59348;52.158;5.588;2022-08-03T04:36:16;14.63;;;4.47;;
22250;SDS011;59348;52.158;5.588;2022-08-03T04:38:52;15.60;;;4.78;;
22250;SDS011;59348;52.158;5.588;2022-08-03T04:41:21;16.42;;;4.38;;
22250;SDS011;59348;52.158;5.588;2022-08-03T04:43:50;13.23;;;4.55;;
22250;SDS011;59348;52.158;5.588;2022-08-03T04:46:21;12.48;;;4.70;;
22250;SDS011;59348;52.158;5.588;2022-08-03T04:48:49;18.10;;;5.18;;
22250;SDS011;59348;52.158;5.588;2022-08-03T04:51:16;17.23;;;4.88;;
22250;SDS011;59348;52.158;5.588;2022-08-03T04:53:45;14.07;;;4.90;;
22250;SDS011;59348;52.158;5.588;2022-08-03T04:56:13;18.05;;;4.88;;
22250;SDS011;59348;52.158;5.588;2022-08-03T04:58:40;18.65;;;5.18;;
22250;SDS011;59348;52.158;5.588;2022-08-03T05:01:07;15.05;;;4.75;;
22250;SDS011;59348;52.158;5.588;2022-08-03T05:03:34;15.18;;;4.90;;
22250;SDS011;59348;52.158;5.588;2022-08-03T05:06:02;16.05;;;5.18;;
22250;SDS011;59348;52.158;5.588;2022-08-03T05:08:29;13.93;;;5.40;;
22250;SDS011;59348;52.158;5.588;2022-08-03T05:10:58;18.45;;;4.93;;
22250;SDS011;59348;52.158;5.588;2022-08-03T05:13:25;13.38;;;4.97;;
22250;SDS011;59348;52.158;5.588;2022-08-03T05:15:53;15.23;;;5.03;;
22250;SDS011;59348;52.158;5.588;2022-08-03T05:18:20;11.25;;;5.25;;
22250;SDS011;59348;52.158;5.588;2022-08-03T05:20:47;15.95;;;5.28;;
22250;SDS011;59348;52.158;5.588;2022-08-03T05:23:14;15.98;;;5.35;;
22250;SDS011;59348;52.158;5.588;2022-08-03T05:25:42;15.25;;;5.40;;
22250;SDS011;59348;52.158;5.588;2022-08-03T05:28:10;14.10;;;4.80;;
22250;SDS011;59348;52.158;5.588;2022-08-03T05:30:38;14.40;;;5.22;;
22250;SDS011;59348;52.158;5.588;2022-08-03T05:33:05;14.55;;;5.03;;
22250;SDS011;59348;52.158;5.588;2022-08-03T05:35:32;16.35;;;5.45;;
22250;SDS011;59348;52.158;5.588;2022-08-03T05:38:00;16.98;;;5.75;;
22250;SDS011;59348;52.158;5.588;2022-08-03T05:40:27;18.98;;;5.78;;
22250;SDS011;59348;52.158;5.588;2022-08-03T05:42:54;18.70;;;4.80;;
22250;SDS011;59348;52.158;5.588;2022-08-03T05:45:23;16.15;;;5.47;;
22250;SDS011;59348;52.158;5.588;2022-08-03T05:47:50;15.85;;;5.45;;
22250;SDS011;59348;52.158;5.588;2022-08-03T05:50:18;18.02;;;5.60;;
22250;SDS011;59348;52.158;5.588;2022-08-03T05:52:46;18.15;;;5.70;;
22250;SDS011;59348;52.158;5.588;2022-08-03T05:55:13;18.85;;;5.63;;
22250;SDS011;59348;52.158;5.588;2022-08-03T05:57:40;18.40;;;5.60;;
22250;SDS011;59348;52.158;5.588;2022-08-03T06:00:09;16.52;;;5.35;;
22250;SDS011;59348;52.158;5.588;2022-08-03T06:02:38;15.88;;;5.53;;
22250;SDS011;59348;52.158;5.588;2022-08-03T06:05:05;19.63;;;6.03;;
22250;SDS011;59348;52.158;5.588;2022-08-03T06:07:33;17.70;;;6.18;;
22250;SDS011;59348;52.158;5.588;2022-08-03T06:10:01;16.15;;;6.05;;
22250;SDS011;59348;52.158;5.588;2022-08-03T06:12:29;15.25;;;5.32;;
22250;SDS011;59348;52.158;5.588;2022-08-03T06:14:59;19.67;;;5.55;;
22250;SDS011;59348;52.158;5.588;2022-08-03T06:17:27;16.52;;;5.70;;
22250;SDS011;59348;52.158;5.588;2022-08-03T06:19:56;18.98;;;5.75;;
22250;SDS011;59348;52.158;5.588;2022-08-03T06:22:23;16.33;;;5.45;;
22250;SDS011;59348;52.158;5.588;2022-08-03T06:24:50;16.25;;;5.30;;
22250;SDS011;59348;52.158;5.588;2022-08-03T06:27:17;13.27;;;5.00;;
22250;SDS011;59348;52.158;5.588;2022-08-03T06:29:45;13.02;;;5.60;;
22250;SDS011;59348;52.158;5.588;2022-08-03T06:32:12;18.90;;;5.43;;
22250;SDS011;59348;52.158;5.588;2022-08-03T06:34:40;24.63;;;5.88;;
22250;SDS011;59348;52.158;5.588;2022-08-03T06:37:09;15.10;;;5.40;;
22250;SDS011;59348;52.158;5.588;2022-08-03T06:39:36;14.52;;;5.85;;
22250;SDS011;59348;52.158;5.588;2022-08-03T06:42:03;19.05;;;6.05;;
22250;SDS011;59348;52.158;5.588;2022-08-03T06:44:30;17.85;;;5.80;;
22250;SDS011;59348;52.158;5.588;2022-08-03T06:46:58;17.60;;;5.65;;
22250;SDS011;59348;52.158;5.588;2022-08-03T06:49:25;16.77;;;5.45;;
22250;SDS011;59348;52.158;5.588;2022-08-03T06:51:52;16.88;;;5.95;;
22250;SDS011;59348;52.158;5.588;2022-08-03T06:54:22;14.68;;;5.57;;
22250;SDS011;59348;52.158;5.588;2022-08-03T06:56:49;17.52;;;5.57;;
22250;SDS011;59348;52.158;5.588;2022-08-03T06:59:16;15.35;;;5.53;;
22250;SDS011;59348;52.158;5.588;2022-08-03T07:01:44;18.35;;;5.85;;
22250;SDS011;59348;52.158;5.588;2022-08-03T07:04:11;15.65;;;6.18;;
22250;SDS011;59348;52.158;5.588;2022-08-03T07:06:38;18.13;;;5.45;;
22250;SDS011;59348;52.158;5.588;2022-08-03T07:09:06;16.08;;;5.60;;
22250;SDS011;59348;52.158;5.588;2022-08-03T07:11:34;18.05;;;5.50;;
22250;SDS011;59348;52.158;5.588;2022-08-03T07:14:01;18.48;;;5.35;;
22250;SDS011;59348;52.158;5.588;2022-08-03T07:16:29;16.50;;;5.63;;
22250;SDS011;59348;52.158;5.588;2022-08-03T07:18:56;20.90;;;5.60;;
22250;SDS011;59348;52.158;5.588;2022-08-03T07:21:23;16.13;;;6.03;;
22250;SDS011;59348;52.158;5.588;2022-08-03T07:23:51;18.60;;;5.45;;
22250;SDS011;59348;52.158;5.588;2022-08-03T07:26:18;23.17;;;5.88;;
22250;SDS011;59348;52.158;5.588;2022-08-03T07:28:47;16.95;;;5.43;;
22250;SDS011;59348;52.158;5.588;2022-08-03T07:31:14;18.25;;;5.60;;
22250;SDS011;59348;52.158;5.588;2022-08-03T07:33:41;18.88;;;5.60;;
22250;SDS011;59348;52.158;5.588;2022-08-03T07:36:08;20.17;;;5.75;;
22250;SDS011;59348;52.158;5.588;2022-08-03T07:38:36;14.07;;;5.53;;
22250;SDS011;59348;52.158;5.588;2022-08-03T07:41:03;17.73;;;5.50;;
22250;SDS011;59348;52.158;5.588;2022-08-03T07:43:30;19.17;;;5.85;;
22250;SDS011;59348;52.158;5.588;2022-08-03T07:45:59;16.40;;;5.05;;
22250;SDS011;59348;52.158;5.588;2022-08-03T07:48:26;18.33;;;5.10;;
22250;SDS011;59348;52.158;5.588;2022-08-03T07:50:53;15.77;;;4.93;;
22250;SDS011;59348;52.158;5.588;2022-08-03T07:53:20;15.68;;;4.35;;
22250;SDS011;59348;52.158;5.588;2022-08-03T07:55:48;16.55;;;5.22;;
22250;SDS011;59348;52.158;5.588;2022-08-03T07:58:15;17.08;;;4.57;;
22250;SDS011;59348;52.158;5.588;2022-08-03T08:00:43;15.68;;;4.80;;
22250;SDS011;59348;52.158;5.588;2022-08-03T08:03:11;17.67;;;5.18;;
22250;SDS011;59348;52.158;5.588;2022-08-03T08:05:39;13.73;;;4.90;;
22250;SDS011;59348;52.158;5.588;2022-08-03T08:08:06;18.25;;;4.88;;
22250;SDS011;59348;52.158;5.588;2022-08-03T08:10:33;16.10;;;4.47;;
22250;SDS011;59348;52.158;5.588;2022-08-03T08:13:01;15.30;;;4.10;;
22250;SDS011;59348;52.158;5.588;2022-08-03T08:15:28;16.25;;;5.05;;
22250;SDS011;59348;52.158;5.588;2022-08-03T08:17:56;13.85;;;4.53;;
22250;SDS011;59348;52.158;5.588;2022-08-03T08:20:26;15.85;;;4.72;;
22250;SDS011;59348;52.158;5.588;2022-08-03T08:22:53;11.95;;;4.10;;
22250;SDS011;59348;52.158;5.588;2022-08-03T08:25:21;14.57;;;4.63;;
22250;SDS011;59348;52.158;5.588;2022-08-03T08:27:48;21.45;;;4.30;;
22250;SDS011;59348;52.158;5.588;2022-08-03T08:30:16;13.90;;;4.15;;
22250;SDS011;59348;52.158;5.588;2022-08-03T08:32:44;22.05;;;5.10;;
22250;SDS011;59348;52.158;5.588;2022-08-03T08:35:11;23.60;;;5.00;;
22250;SDS011;59348;52.158;5.588;2022-08-03T08:37:40;16.90;;;4.50;;
22250;SDS011;59348;52.158;5.588;2022-08-03T08:40:08;18.63;;;4.50;;
22250;SDS011;59348;52.158;5.588;2022-08-03T08:42:37;16.90;;;4.53;;
22250;SDS011;59348;52.158;5.588;2022-08-03T08:45:05;15.30;;;4.03;;
22250;SDS011;59348;52.158;5.588;2022-08-03T08:47:33;17.05;;;4.53;;
22250;SDS011;59348;52.158;5.588;2022-08-03T08:50:03;20.10;;;5.22;;
22250;SDS011;59348;52.158;5.588;2022-08-03T08:52:31;22.73;;;4.97;;
22250;SDS011;59348;52.158;5.588;2022-08-03T08:55:01;17.13;;;4.60;;
22250;SDS011;59348;52.158;5.588;2022-08-03T08:57:29;19.25;;;4.60;;
22250;SDS011;59348;52.158;5.588;2022-08-03T08:59:57;21.42;;;5.40;;
22250;SDS011;59348;52.158;5.588;2022-08-03T09:02:25;16.10;;;4.32;;
22250;SDS011;59348;52.158;5.588;2022-08-03T09:04:55;19.67;;;4.78;;
22250;SDS011;59348;52.158;5.588;2022-08-03T09:07:23;20.27;;;4.85;;
22250;SDS011;59348;52.158;5.588;2022-08-03T09:09:50;20.60;;;4.50;;
22250;SDS011;59348;52.158;5.588;2022-08-03T09:12:19;26.05;;;5.38;;
22250;SDS011;59348;52.158;5.588;2022-08-03T09:14:46;17.98;;;4.80;;
22250;SDS011;59348;52.158;5.588;2022-08-03T09:17:13;15.85;;;4.35;;
22250;SDS011;59348;52.158;5.588;2022-08-03T09:19:40;16.05;;;5.03;;
22250;SDS011;59348;52.158;5.588;2022-08-03T09:22:10;18.75;;;5.00;;
22250;SDS011;59348;52.158;5.588;2022-08-03T09:24:38;19.00;;;4.82;;
22250;SDS011;59348;52.158;5.588;2022-08-03T09:27:21;16.85;;;4.50;;
22250;SDS011;59348;52.158;5.588;2022-08-03T09:29:49;25.02;;;4.88;;
22250;SDS011;59348;52.158;5.588;2022-08-03T09:32:18;17.92;;;4.93;;
22250;SDS011;59348;52.158;5.588;2022-08-03T09:34:46;16.55;;;4.70;;
22250;SDS011;59348;52.158;5.588;2022-08-03T09:37:14;20.83;;;4.78;;
22250;SDS011;59348;52.158;5.588;2022-08-03T09:39:42;19.75;;;4.63;;
22250;SDS011;59348;52.158;5.588;2022-08-03T09:42:11;21.75;;;4.75;;
22250;SDS011;59348;52.158;5.588;2022-08-03T09:44:41;18.80;;;4.70;;
22250;SDS011;59348;52.158;5.588;2022-08-03T09:47:08;17.48;;;4.55;;
22250;SDS011;59348;52.158;5.588;2022-08-03T09:49:36;18.15;;;4.60;;
22250;SDS011;59348;52.158;5.588;2022-08-03T09:52:11;19.80;;;4.38;;
22250;SDS011;59348;52.158;5.588;2022-08-03T09:54:39;21.30;;;4.95;;
22250;SDS011;59348;52.158;5.588;2022-08-03T09:57:06;23.40;;;5.07;;
22250;SDS011;59348;52.158;5.588;2022-08-03T09:59:34;19.80;;;4.82;;
22250;SDS011;59348;52.158;5.588;2022-08-03T10:02:02;21.05;;;4.80;;
22250;SDS011;59348;52.158;5.588;2022-08-03T10:04:30;23.10;;;5.13;;
22250;SDS011;59348;52.158;5.588;2022-08-03T10:07:01;15.38;;;4.38;;
22250;SDS011;59348;52.158;5.588;2022-08-03T10:09:29;18.00;;;4.30;;
22250;SDS011;59348;52.158;5.588;2022-08-03T10:11:56;20.83;;;4.50;;
22250;SDS011;59348;52.158;5.588;2022-08-03T10:14:25;16.17;;;3.80;;
22250;SDS011;59348;52.158;5.588;2022-08-03T10:16:55;24.48;;;4.47;;
22250;SDS011;59348;52.158;5.588;2022-08-03T10:19:24;20.75;;;4.60;;
22250;SDS011;59348;52.158;5.588;2022-08-03T10:21:53;21.80;;;4.30;;
22250;SDS011;59348;52.158;5.588;2022-08-03T10:24:23;16.13;;;4.10;;
22250;SDS011;59348;52.158;5.588;2022-08-03T10:26:51;17.90;;;4.78;;
22250;SDS011;59348;52.158;5.588;2022-08-03T10:29:20;19.30;;;4.28;;
22250;SDS011;59348;52.158;5.588;2022-08-03T10:31:48;18.58;;;4.20;;
22250;SDS011;59348;52.158;5.588;2022-08-03T10:34:21;19.55;;;4.50;;
22250;SDS011;59348;52.158;5.588;2022-08-03T10:36:51;17.17;;;4.47;;
22250;SDS011;59348;52.158;5.588;2022-08-03T10:39:23;15.43;;;4.10;;
22250;SDS011;59348;52.158;5.588;2022-08-03T10:41:53;16.58;;;4.25;;
22250;SDS011;59348;52.158;5.588;2022-08-03T10:44:23;17.95;;;3.78;;
22250;SDS011;59348;52.158;5.588;2022-08-03T10:46:50;14.45;;;4.10;;
22250;SDS011;59348;52.158;5.588;2022-08-03T10:49:19;15.65;;;4.30;;
22250;SDS011;59348;52.158;5.588;2022-08-03T10:51:47;17.48;;;3.85;;
22250;SDS011;59348;52.158;5.588;2022-08-03T10:56:58;16.00;;;4.10;;
22250;SDS011;59348;52.158;5.588;2022-08-03T11:02:21;24.95;;;4.20;;
22250;SDS011;59348;52.158;5.588;2022-08-03T11:04:48;13.20;;;3.85;;
22250;SDS011;59348;52.158;5.588;2022-08-03T11:07:35;15.77;;;3.80;;
22250;SDS011;59348;52.158;5.588;2022-08-03T11:10:03;16.42;;;4.05;;
22250;SDS011;59348;52.158;5.588;2022-08-03T11:12:32;18.08;;;4.28;;
22250;SDS011;59348;52.158;5.588;2022-08-03T11:15:00;11.70;;;4.05;;
22250;SDS011;59348;52.158;5.588;2022-08-03T11:17:27;20.98;;;4.20;;
22250;SDS011;59348;52.158;5.588;2022-08-03T11:19:55;18.30;;;4.50;;
22250;SDS011;59348;52.158;5.588;2022-08-03T11:22:22;19.42;;;4.60;;
22250;SDS011;59348;52.158;5.588;2022-08-03T11:24:57;19.33;;;4.22;;
22250;SDS011;59348;52.158;5.588;2022-08-03T11:27:26;15.90;;;3.83;;
22250;SDS011;59348;52.158;5.588;2022-08-03T11:29:55;17.52;;;3.65;;
22250;SDS011;59348;52.158;5.588;2022-08-03T11:35:05;14.55;;;3.80;;
22250;SDS011;59348;52.158;5.588;2022-08-03T11:37:33;16.75;;;4.00;;
22250;SDS011;59348;52.158;5.588;2022-08-03T11:40:00;15.13;;;3.60;;
22250;SDS011;59348;52.158;5.588;2022-08-03T11:45:12;13.00;;;3.60;;
22250;SDS011;59348;52.158;5.588;2022-08-03T11:47:40;11.30;;;3.63;;
22250;SDS011;59348;52.158;5.588;2022-08-03T11:50:08;16.67;;;3.92;;
22250;SDS011;59348;52.158;5.588;2022-08-03T11:52:37;13.00;;;3.90;;
22250;SDS011;59348;52.158;5.588;2022-08-03T11:55:12;14.48;;;3.60;;
22250;SDS011;59348;52.158;5.588;2022-08-03T11:57:40;19.10;;;4.47;;
22250;SDS011;59348;52.158;5.588;2022-08-03T12:02:57;10.80;;;3.47;;
22250;SDS011;59348;52.158;5.588;2022-08-03T12:05:33;15.60;;;3.80;;
22250;SDS011;59348;52.158;5.588;2022-08-03T12:08:01;13.32;;;3.83;;
22250;SDS011;59348;52.158;5.588;2022-08-03T12:10:28;17.38;;;4.07;;
22250;SDS011;59348;52.158;5.588;2022-08-03T12:12:55;11.90;;;3.85;;
22250;SDS011;59348;52.158;5.588;2022-08-03T12:15:24;10.45;;;3.45;;
22250;SDS011;59348;52.158;5.588;2022-08-03T12:17:51;15.43;;;4.07;;
22250;SDS011;59348;52.158;5.588;2022-08-03T12:20:21;17.75;;;3.97;;
22250;SDS011;59348;52.158;5.588;2022-08-03T12:22:49;9.90;;;3.45;;
22250;SDS011;59348;52.158;5.588;2022-08-03T12:25:20;12.45;;;3.70;;
22250;SDS011;59348;52.158;5.588;2022-08-03T12:27:47;11.55;;;3.67;;
22250;SDS011;59348;52.158;5.588;2022-08-03T12:30:15;10.50;;;3.70;;
22250;SDS011;59348;52.158;5.588;2022-08-03T12:32:42;9.98;;;3.38;;
22250;SDS011;59348;52.158;5.588;2022-08-03T12:35:10;16.55;;;3.95;;
22250;SDS011;59348;52.158;5.588;2022-08-03T12:37:49;12.48;;;3.75;;
22250;SDS011;59348;52.158;5.588;2022-08-03T12:40:23;12.55;;;3.22;;
22250;SDS011;59348;52.158;5.588;2022-08-03T12:42:51;13.60;;;3.90;;
22250;SDS011;59348;52.158;5.588;2022-08-03T12:45:19;10.68;;;3.50;;
22250;SDS011;59348;52.158;5.588;2022-08-03T12:47:48;15.30;;;3.70;;
22250;SDS011;59348;52.158;5.588;2022-08-03T12:50:22;17.02;;;3.67;;
22250;SDS011;59348;52.158;5.588;2022-08-03T12:52:51;12.75;;;3.78;;
22250;SDS011;59348;52.158;5.588;2022-08-03T12:55:19;10.38;;;3.58;;
22250;SDS011;59348;52.158;5.588;2022-08-03T12:57:47;14.85;;;4.43;;
22250;SDS011;59348;52.158;5.588;2022-08-03T13:00:15;10.20;;;3.50;;
22250;SDS011;59348;52.158;5.588;2022-08-03T13:02:42;10.05;;;3.50;;
22250;SDS011;59348;52.158;5.588;2022-08-03T13:05:10;50.28;;;5.75;;
22250;SDS011;59348;52.158;5.588;2022-08-03T13:07:39;11.52;;;3.80;;
22250;SDS011;59348;52.158;5.588;2022-08-03T13:10:08;13.57;;;4.00;;
22250;SDS011;59348;52.158;5.588;2022-08-03T13:12:44;10.85;;;3.95;;
22250;SDS011;59348;52.158;5.588;2022-08-03T13:15:12;17.95;;;4.03;;
22250;SDS011;59348;52.158;5.588;2022-08-03T13:17:39;14.55;;;4.10;;
22250;SDS011;59348;52.158;5.588;2022-08-03T13:20:07;6.03;;;3.60;;
22250;SDS011;59348;52.158;5.588;2022-08-03T13:22:34;8.68;;;3.78;;
22250;SDS011;59348;52.158;5.588;2022-08-03T13:25:02;9.65;;;3.90;;
22250;SDS011;59348;52.158;5.588;2022-08-03T13:27:31;10.88;;;3.88;;
22250;SDS011;59348;52.158;5.588;2022-08-03T13:29:58;9.50;;;4.05;;
22250;SDS011;59348;52.158;5.588;2022-08-03T13:32:25;14.43;;;3.92;;
22250;SDS011;59348;52.158;5.588;2022-08-03T13:34:53;11.52;;;3.83;;
22250;SDS011;59348;52.158;5.588;2022-08-03T13:37:20;9.43;;;3.88;;
22250;SDS011;59348;52.158;5.588;2022-08-03T13:39:47;7.53;;;3.47;;
22250;SDS011;59348;52.158;5.588;2022-08-03T13:42:14;11.48;;;3.42;;
22250;SDS011;59348;52.158;5.588;2022-08-03T13:44:43;6.13;;;3.75;;
22250;SDS011;59348;52.158;5.588;2022-08-03T13:47:10;5.82;;;3.80;;
22250;SDS011;59348;52.158;5.588;2022-08-03T13:49:38;52.30;;;5.50;;
22250;SDS011;59348;52.158;5.588;2022-08-03T13:52:05;31.73;;;5.38;;
22250;SDS011;59348;52.158;5.588;2022-08-03T13:54:32;11.90;;;4.38;;
22250;SDS011;59348;52.158;5.588;2022-08-03T13:56:59;7.13;;;4.35;;
22250;SDS011;59348;52.158;5.588;2022-08-03T13:59:27;8.15;;;4.22;;
22250;SDS011;59348;52.158;5.588;2022-08-03T14:01:55;6.20;;;4.50;;
22250;SDS011;59348;52.158;5.588;2022-08-03T14:04:22;17.35;;;4.13;;
22250;SDS011;59348;52.158;5.588;2022-08-03T14:06:50;9.02;;;4.28;;
22250;SDS011;59348;52.158;5.588;2022-08-03T14:09:17;10.88;;;4.60;;
22250;SDS011;59348;52.158;5.588;2022-08-03T14:11:44;6.43;;;4.22;;
22250;SDS011;59348;52.158;5.588;2022-08-03T14:14:12;10.38;;;4.70;;
22250;SDS011;59348;52.158;5.588;2022-08-03T14:16:39;8.65;;;4.70;;
22250;SDS011;59348;52.158;5.588;2022-08-03T14:19:08;11.05;;;4.45;;
22250;SDS011;59348;52.158;5.588;2022-08-03T14:21:35;8.07;;;4.45;;
22250;SDS011;59348;52.158;5.588;2022-08-03T14:24:03;7.35;;;4.65;;
22250;SDS011;59348;52.158;5.588;2022-08-03T14:26:30;6.75;;;4.88;;
22250;SDS011;59348;52.158;5.588;2022-08-03T14:28:58;9.98;;;4.50;;
22250;SDS011;59348;52.158;5.588;2022-08-03T14:31:26;9.70;;;4.80;;
22250;SDS011;59348;52.158;5.588;2022-08-03T14:33:53;10.98;;;4.90;;
22250;SDS011;59348;52.158;5.588;2022-08-03T14:36:21;10.18;;;5.82;;
22250;SDS011;59348;52.158;5.588;2022-08-03T14:38:49;9.68;;;5.53;;
22250;SDS011;59348;52.158;5.588;2022-08-03T14:41:16;10.95;;;5.45;;
22250;SDS011;59348;52.158;5.588;2022-08-03T14:43:43;10.63;;;4.97;;
22250;SDS011;59348;52.158;5.588;2022-08-03T14:46:11;6.68;;;4.75;;
22250;SDS011;59348;52.158;5.588;2022-08-03T14:48:38;10.13;;;5.45;;
22250;SDS011;59348;52.158;5.588;2022-08-03T14:51:05;10.38;;;4.80;;
22250;SDS011;59348;52.158;5.588;2022-08-03T14:53:34;6.13;;;4.53;;
22250;SDS011;59348;52.158;5.588;2022-08-03T14:56:01;6.28;;;5.10;;
22250;SDS011;59348;52.158;5.588;2022-08-03T14:58:28;10.85;;;4.93;;